createdAt,value
2022-08-31T00:00:10.058Z,22.50
2022-08-31T00:02:55.590Z,22.50
2022-08-31T00:05:22.400Z,22.60
2022-08-31T00:07:49.073Z,22.60
2022-08-31T00:10:18.606Z,22.70
2022-08-31T00:12:48.695Z,22.70
2022-08-31T00:15:19.499Z,22.50
2022-08-31T00:17:49.056Z,22.50
2022-08-31T00:20:32.516Z,22.40
2022-08-31T00:23:06.105Z,22.40
2022-08-31T00:25:34.141Z,22.60
2022-08-31T00:28:01.269Z,22.60
2022-08-31T00:30:28.243Z,22.60
2022-08-31T00:32:58.129Z,22.60
2022-08-31T00:35:29.416Z,22.60
2022-08-31T00:37:56.371Z,22.60
2022-08-31T00:40:23.895Z,22.60
2022-08-31T00:42:50.897Z,22.60
2022-08-31T00:45:18.077Z,22.60
2022-08-31T00:47:44.901Z,22.60
2022-08-31T00:50:14.979Z,22.60
2022-08-31T00:52:46.310Z,22.60
2022-08-31T00:55:14.754Z,22.60
2022-08-31T00:57:44.788Z,22.60
2022-08-31T01:00:16.096Z,22.50
2022-08-31T01:02:43.344Z,22.40
2022-08-31T01:05:10.833Z,22.40
2022-08-31T01:07:38.335Z,22.20
2022-08-31T01:10:05.783Z,22.10
2022-08-31T01:12:32.584Z,22.00
2022-08-31T01:15:02.485Z,22.00
2022-08-31T01:17:31.180Z,22.00
2022-08-31T01:20:07.653Z,22.00
2022-08-31T01:23:14.804Z,21.80
2022-08-31T01:25:44.594Z,21.50
2022-08-31T01:28:11.974Z,21.10
2022-08-31T01:30:40.381Z,20.90
2022-08-31T01:33:07.100Z,20.70
2022-08-31T01:35:34.509Z,20.80
2022-08-31T01:38:02.442Z,20.70
2022-08-31T01:40:44.434Z,20.70
2022-08-31T01:43:11.227Z,20.40
2022-08-31T01:45:38.116Z,20.30
2022-08-31T01:48:04.978Z,20.10
2022-08-31T01:50:31.738Z,19.80
2022-08-31T01:52:59.031Z,19.70
2022-08-31T01:55:25.742Z,19.50
2022-08-31T01:57:52.504Z,19.50
2022-08-31T02:00:19.451Z,19.40
2022-08-31T02:02:46.254Z,19.50
2022-08-31T02:05:14.396Z,19.70
2022-08-31T02:07:42.083Z,19.90
2022-08-31T02:10:09.239Z,20.00
2022-08-31T02:12:35.946Z,19.90
2022-08-31T02:15:02.682Z,19.80
2022-08-31T02:17:29.361Z,19.70
2022-08-31T02:19:56.132Z,20.00
2022-08-31T02:22:22.823Z,20.00
2022-08-31T02:24:49.541Z,19.80
2022-08-31T02:27:16.430Z,19.50
2022-08-31T02:29:43.205Z,19.70
2022-08-31T02:32:19.507Z,19.80
2022-08-31T02:34:48.440Z,19.90
2022-08-31T02:37:15.819Z,19.80
2022-08-31T02:39:44.367Z,19.70
2022-08-31T02:42:11.216Z,19.60
2022-08-31T02:44:37.937Z,19.70
2022-08-31T02:47:04.708Z,19.70
2022-08-31T02:49:34.518Z,19.70
2022-08-31T02:52:01.167Z,19.70
2022-08-31T02:54:28.943Z,19.60
2022-08-31T02:56:55.590Z,19.70
2022-08-31T02:59:22.271Z,19.90
2022-08-31T03:01:49.932Z,19.80
2022-08-31T03:04:16.814Z,19.90
2022-08-31T03:06:43.469Z,19.90
2022-08-31T03:09:10.388Z,19.80
2022-08-31T03:11:37.055Z,19.80
2022-08-31T03:14:04.045Z,19.90
2022-08-31T03:16:30.892Z,20.00
2022-08-31T03:18:57.964Z,20.00
2022-08-31T03:21:24.663Z,20.00
2022-08-31T03:23:51.312Z,20.00
2022-08-31T03:26:17.973Z,19.90
2022-08-31T03:28:44.760Z,20.00
2022-08-31T03:31:11.552Z,20.00
2022-08-31T03:33:38.407Z,19.90
2022-08-31T03:36:05.540Z,20.00
2022-08-31T03:38:32.944Z,19.80
2022-08-31T03:41:01.131Z,19.80
2022-08-31T03:43:27.856Z,19.70
2022-08-31T03:45:54.904Z,19.80
2022-08-31T03:48:21.677Z,19.80
2022-08-31T03:50:48.517Z,19.80
2022-08-31T03:53:19.195Z,19.90
2022-08-31T03:55:49.317Z,19.70
2022-08-31T03:58:15.984Z,19.70
2022-08-31T04:00:44.278Z,19.70
2022-08-31T04:03:11.662Z,19.60
2022-08-31T04:05:44.305Z,19.50
2022-08-31T04:08:11.293Z,19.50
2022-08-31T04:10:42.075Z,19.40
2022-08-31T04:13:08.738Z,19.50
2022-08-31T04:15:39.559Z,19.60
2022-08-31T04:18:07.041Z,19.50
2022-08-31T04:20:35.709Z,19.60
2022-08-31T04:23:02.651Z,19.60
2022-08-31T04:25:29.329Z,19.50
2022-08-31T04:27:56.830Z,19.50
2022-08-31T04:30:25.396Z,19.60
2022-08-31T04:32:53.687Z,19.50
2022-08-31T04:35:21.013Z,19.50
2022-08-31T04:37:48.068Z,19.40
2022-08-31T04:40:23.569Z,19.40
2022-08-31T04:42:52.538Z,19.40
2022-08-31T04:45:19.200Z,19.30
2022-08-31T04:47:46.038Z,19.30
2022-08-31T04:50:15.318Z,19.20
2022-08-31T04:52:42.750Z,19.10
2022-08-31T04:55:11.880Z,19.20
2022-08-31T04:57:40.883Z,19.20
2022-08-31T05:00:08.497Z,19.10
2022-08-31T05:02:35.516Z,19.20
2022-08-31T05:05:04.000Z,19.30
2022-08-31T05:07:30.717Z,19.30
2022-08-31T05:09:57.468Z,19.30
2022-08-31T05:12:24.127Z,19.40
2022-08-31T05:14:51.262Z,19.30
2022-08-31T05:17:18.005Z,19.30
2022-08-31T05:19:45.015Z,19.30
2022-08-31T05:22:11.799Z,19.30
2022-08-31T05:24:38.878Z,19.40
2022-08-31T05:27:05.790Z,19.40
2022-08-31T05:29:32.476Z,19.40
2022-08-31T05:31:59.135Z,19.30
2022-08-31T05:34:26.466Z,19.20
2022-08-31T05:36:56.152Z,19.30
2022-08-31T05:39:23.898Z,19.40
2022-08-31T05:41:50.797Z,19.40
2022-08-31T05:44:19.836Z,19.40
2022-08-31T05:46:52.384Z,19.50
2022-08-31T05:49:24.087Z,19.50
2022-08-31T05:51:56.394Z,19.50
2022-08-31T05:54:23.159Z,19.40
2022-08-31T05:56:49.842Z,19.30
2022-08-31T05:59:16.490Z,19.40
2022-08-31T06:01:43.297Z,19.50
2022-08-31T06:04:11.008Z,19.50
2022-08-31T06:06:38.267Z,19.50
2022-08-31T06:09:07.480Z,19.40
2022-08-31T06:11:35.422Z,19.50
2022-08-31T06:14:05.537Z,19.40
2022-08-31T06:16:33.397Z,19.40
2022-08-31T06:19:03.270Z,19.40
2022-08-31T06:21:33.470Z,19.40
2022-08-31T06:24:01.885Z,19.40
2022-08-31T06:26:30.134Z,19.40
2022-08-31T06:28:59.523Z,19.30
2022-08-31T06:31:38.065Z,19.30
2022-08-31T06:34:07.127Z,19.40
2022-08-31T06:36:34.737Z,19.50
2022-08-31T06:39:02.244Z,19.50
2022-08-31T06:41:36.770Z,19.50
2022-08-31T06:44:06.574Z,19.50
2022-08-31T06:46:34.634Z,19.30
2022-08-31T06:49:02.056Z,19.30
2022-08-31T06:51:29.149Z,19.40
2022-08-31T06:54:07.636Z,19.40
2022-08-31T06:56:43.363Z,19.20
2022-08-31T06:59:10.246Z,19.10
2022-08-31T07:01:37.799Z,18.90
2022-08-31T07:04:07.513Z,19.00
2022-08-31T07:06:45.120Z,19.10
2022-08-31T07:09:15.935Z,19.20
2022-08-31T07:11:45.798Z,19.10
2022-08-31T07:14:16.659Z,19.10
2022-08-31T07:16:45.514Z,19.10
2022-08-31T07:19:13.630Z,19.10
2022-08-31T07:21:43.815Z,19.10
2022-08-31T07:24:12.518Z,19.20
2022-08-31T07:26:43.230Z,19.30
2022-08-31T07:29:11.591Z,19.20
2022-08-31T07:31:46.474Z,19.30
2022-08-31T07:34:21.616Z,19.30
2022-08-31T07:37:07.261Z,19.30
2022-08-31T07:39:53.656Z,19.30
2022-08-31T07:42:28.694Z,19.30
2022-08-31T07:44:57.889Z,19.20
2022-08-31T07:47:29.014Z,19.20
2022-08-31T07:49:58.415Z,19.30
2022-08-31T07:52:28.657Z,19.30
2022-08-31T07:55:07.689Z,19.30
2022-08-31T07:57:44.009Z,19.10
2022-08-31T08:00:18.142Z,19.10
2022-08-31T08:02:52.735Z,19.10
2022-08-31T08:05:27.473Z,19.30
2022-08-31T08:08:10.683Z,19.30
2022-08-31T08:10:43.393Z,19.10
2022-08-31T08:13:12.441Z,19.10
2022-08-31T08:15:40.361Z,19.10
2022-08-31T08:18:07.443Z,19.00
2022-08-31T08:20:38.265Z,18.90
2022-08-31T08:23:28.487Z,18.90
2022-08-31T08:25:56.743Z,18.90
2022-08-31T08:28:45.702Z,19.00
2022-08-31T08:31:15.924Z,19.10
2022-08-31T08:33:43.602Z,19.10
2022-08-31T08:36:10.392Z,19.10
2022-08-31T08:38:39.730Z,19.10
2022-08-31T08:41:12.333Z,19.20
2022-08-31T08:43:43.835Z,19.20
2022-08-31T08:46:33.395Z,19.40
2022-08-31T08:49:09.091Z,19.40
2022-08-31T08:51:39.027Z,19.60
2022-08-31T08:54:12.412Z,19.60
2022-08-31T08:56:47.003Z,19.50
2022-08-31T08:59:19.338Z,19.50
2022-08-31T09:01:49.716Z,19.50
2022-08-31T09:04:39.706Z,19.20
2022-08-31T09:07:09.363Z,19.40
2022-08-31T09:09:36.310Z,19.50
2022-08-31T09:12:23.044Z,19.60
2022-08-31T09:15:36.391Z,19.70
2022-08-31T09:18:33.446Z,19.70
2022-08-31T09:21:01.993Z,19.80
2022-08-31T09:23:32.275Z,19.80
2022-08-31T09:25:59.040Z,19.80
2022-08-31T09:28:38.897Z,19.70
2022-08-31T09:31:06.035Z,19.80
2022-08-31T09:33:46.549Z,19.80
2022-08-31T09:36:21.916Z,19.90
2022-08-31T09:38:49.255Z,19.80
2022-08-31T09:41:36.431Z,19.90
2022-08-31T09:44:31.721Z,19.90
2022-08-31T09:47:02.708Z,20.00
2022-08-31T09:49:38.300Z,20.10
2022-08-31T09:52:17.385Z,20.20
2022-08-31T09:55:13.661Z,20.20
2022-08-31T09:57:54.202Z,20.20
2022-08-31T10:00:51.646Z,20.30
2022-08-31T10:03:23.457Z,20.30
2022-08-31T10:05:52.252Z,20.30
2022-08-31T10:08:38.598Z,20.20
2022-08-31T10:11:12.449Z,20.20
2022-08-31T10:13:43.990Z,20.30
2022-08-31T10:16:31.907Z,20.40
2022-08-31T10:19:13.188Z,20.40
2022-08-31T10:21:53.395Z,20.40
2022-08-31T10:24:55.055Z,20.50
2022-08-31T10:27:32.152Z,20.50
2022-08-31T10:30:11.482Z,20.40
2022-08-31T10:32:49.542Z,20.40
2022-08-31T10:35:20.465Z,20.40
2022-08-31T10:38:08.359Z,20.40
2022-08-31T10:40:44.774Z,20.50
2022-08-31T10:43:21.987Z,20.40
2022-08-31T10:45:52.533Z,20.40
2022-08-31T10:48:22.912Z,20.30
2022-08-31T10:50:55.960Z,20.40
2022-08-31T10:53:34.625Z,20.50
2022-08-31T10:56:39.712Z,20.70
2022-08-31T10:59:29.371Z,20.90
2022-08-31T11:02:16.234Z,21.00
2022-08-31T11:04:51.825Z,20.90
2022-08-31T11:07:34.170Z,21.00
2022-08-31T11:10:00.840Z,21.10
2022-08-31T11:12:40.854Z,21.20
2022-08-31T11:15:30.470Z,21.30
2022-08-31T11:18:36.093Z,21.40
2022-08-31T11:21:36.215Z,21.40
2022-08-31T11:24:08.617Z,21.20
2022-08-31T11:26:59.026Z,21.20
2022-08-31T11:29:37.685Z,21.20
2022-08-31T11:32:11.773Z,21.20
2022-08-31T11:34:54.932Z,21.20
2022-08-31T11:37:53.040Z,21.20
2022-08-31T11:40:44.148Z,21.40
2022-08-31T11:43:33.580Z,21.50
2022-08-31T11:46:26.551Z,21.30
2022-08-31T11:48:54.571Z,21.30
2022-08-31T11:51:41.011Z,21.30
2022-08-31T11:54:15.922Z,21.20
2022-08-31T11:56:47.303Z,21.30
2022-08-31T11:59:26.287Z,21.40
2022-08-31T12:01:56.524Z,21.50
2022-08-31T12:04:46.430Z,21.40
2022-08-31T12:07:31.719Z,21.30
2022-08-31T12:10:34.175Z,21.30
2022-08-31T12:13:18.741Z,21.30
2022-08-31T12:16:07.512Z,21.10
2022-08-31T12:19:43.382Z,21.10
2022-08-31T12:22:53.364Z,21.30
2022-08-31T12:26:14.901Z,21.20
2022-08-31T12:28:54.974Z,21.20
2022-08-31T12:31:21.790Z,21.20
2022-08-31T12:34:05.005Z,21.10
2022-08-31T12:36:34.791Z,21.20
2022-08-31T12:39:25.940Z,21.20
2022-08-31T12:41:59.981Z,21.30
2022-08-31T12:44:32.103Z,21.40
2022-08-31T12:47:24.282Z,21.40
2022-08-31T12:50:04.017Z,21.30
2022-08-31T12:53:04.787Z,21.20
2022-08-31T12:55:40.424Z,21.40
2022-08-31T12:58:30.459Z,21.40
2022-08-31T13:01:13.925Z,21.30
2022-08-31T13:03:46.854Z,21.40
2022-08-31T13:06:35.235Z,21.60
2022-08-31T13:09:02.537Z,21.50
2022-08-31T13:11:39.913Z,21.50
2022-08-31T13:14:15.172Z,21.30
2022-08-31T13:16:48.743Z,21.40
2022-08-31T13:19:23.984Z,21.50
2022-08-31T13:22:16.828Z,21.80
2022-08-31T13:24:51.368Z,21.80
2022-08-31T13:27:23.492Z,21.90
2022-08-31T13:29:52.001Z,21.80
2022-08-31T13:32:25.228Z,21.80
2022-08-31T13:34:52.389Z,21.80
2022-08-31T13:37:30.510Z,21.90
2022-08-31T13:40:03.927Z,21.90
2022-08-31T13:42:33.412Z,22.10
2022-08-31T13:45:07.387Z,22.10
2022-08-31T13:47:45.862Z,22.20
2022-08-31T13:50:27.868Z,22.10
2022-08-31T13:53:25.338Z,22.10
2022-08-31T13:55:48.693Z,22.20
2022-08-31T13:58:30.548Z,22.00
2022-08-31T14:01:26.470Z,22.20
2022-08-31T14:03:58.957Z,22.10
2022-08-31T14:06:34.673Z,22.30
2022-08-31T14:09:17.126Z,22.50
2022-08-31T14:11:53.502Z,22.40
2022-08-31T14:14:30.050Z,22.30
2022-08-31T14:17:00.189Z,22.40
2022-08-31T14:19:39.384Z,22.60
2022-08-31T14:22:28.022Z,22.60
2022-08-31T14:25:00.440Z,22.80
2022-08-31T14:27:28.141Z,22.90
2022-08-31T14:29:55.066Z,23.00
2022-08-31T14:32:22.640Z,23.10
2022-08-31T14:34:51.027Z,23.00
2022-08-31T14:37:28.698Z,23.10
2022-08-31T14:40:05.547Z,23.00
2022-08-31T14:42:37.645Z,23.10
2022-08-31T14:45:24.466Z,23.30
2022-08-31T14:47:52.459Z,23.20
2022-08-31T14:50:25.381Z,23.40
2022-08-31T14:52:53.013Z,23.40
2022-08-31T14:55:22.505Z,23.60
2022-08-31T14:57:58.198Z,22.90
2022-08-31T15:00:26.459Z,23.10
2022-08-31T15:02:53.653Z,23.40
2022-08-31T15:05:23.779Z,23.60
2022-08-31T15:07:52.957Z,23.60
2022-08-31T15:10:22.809Z,23.50
2022-08-31T15:12:50.379Z,23.40
2022-08-31T15:15:20.306Z,23.00
2022-08-31T15:17:50.215Z,22.50
2022-08-31T15:20:21.452Z,22.30
2022-08-31T15:22:48.589Z,22.10
2022-08-31T15:25:16.969Z,22.10
2022-08-31T15:27:44.219Z,21.90
2022-08-31T15:30:14.532Z,21.70
2022-08-31T15:32:44.980Z,21.60
2022-08-31T15:35:16.129Z,21.40
2022-08-31T15:37:44.704Z,21.40
2022-08-31T15:40:11.838Z,21.40
2022-08-31T15:42:43.594Z,21.30
2022-08-31T15:45:10.932Z,21.10
2022-08-31T15:47:58.593Z,21.10
2022-08-31T15:50:31.888Z,21.10
2022-08-31T15:53:09.570Z,21.00
2022-08-31T15:55:38.798Z,21.10
2022-08-31T15:58:07.686Z,21.40
2022-08-31T16:00:36.072Z,21.30
2022-08-31T16:03:03.609Z,21.30
2022-08-31T16:05:38.645Z,21.30
2022-08-31T16:08:10.962Z,21.30
2022-08-31T16:10:45.889Z,21.30
2022-08-31T16:13:15.690Z,21.40
2022-08-31T16:15:51.823Z,21.30
2022-08-31T16:18:21.763Z,21.40
2022-08-31T16:20:50.249Z,21.40
2022-08-31T16:23:17.420Z,21.40
2022-08-31T16:25:48.703Z,21.40
2022-08-31T16:28:20.044Z,21.40
2022-08-31T16:30:47.464Z,21.40
2022-08-31T16:33:14.154Z,21.40
2022-08-31T16:35:40.980Z,21.40
2022-08-31T16:38:07.726Z,21.50
2022-08-31T16:40:35.405Z,21.50
2022-08-31T16:43:02.998Z,21.40
2022-08-31T16:45:29.791Z,21.30
2022-08-31T16:48:16.476Z,21.40
2022-08-31T16:50:47.681Z,21.30
2022-08-31T16:53:18.131Z,21.40
2022-08-31T16:55:47.296Z,21.30
2022-08-31T16:58:24.908Z,21.30
2022-08-31T17:01:08.882Z,21.20
2022-08-31T17:03:35.703Z,21.30
2022-08-31T17:06:02.365Z,21.20
2022-08-31T17:08:31.145Z,21.00
2022-08-31T17:11:04.048Z,21.00
2022-08-31T17:13:32.209Z,21.00
2022-08-31T17:15:59.005Z,20.90
2022-08-31T17:18:27.737Z,21.00
2022-08-31T17:20:54.412Z,21.00
2022-08-31T17:23:21.609Z,21.10
2022-08-31T17:25:48.310Z,21.00
2022-08-31T17:28:17.008Z,21.00
2022-08-31T17:30:44.809Z,21.00
2022-08-31T17:33:12.485Z,20.90
2022-08-31T17:35:41.772Z,20.90
2022-08-31T17:38:08.540Z,20.80
2022-08-31T17:40:35.318Z,20.80
2022-08-31T17:43:02.179Z,20.90
2022-08-31T17:45:28.865Z,20.90
2022-08-31T17:47:55.577Z,20.80
2022-08-31T17:50:22.375Z,20.80
2022-08-31T17:52:49.121Z,20.80
2022-08-31T17:55:15.900Z,20.80
2022-08-31T17:57:44.117Z,20.80
2022-08-31T18:00:14.399Z,20.80
2022-08-31T18:02:41.203Z,20.70
2022-08-31T18:05:09.518Z,20.50
2022-08-31T18:07:39.627Z,20.30
2022-08-31T18:10:06.716Z,20.20
2022-08-31T18:12:40.819Z,20.40
2022-08-31T18:15:09.683Z,20.40
2022-08-31T18:17:36.624Z,20.50
2022-08-31T18:20:04.432Z,20.50
2022-08-31T18:22:31.200Z,20.40
2022-08-31T18:24:58.164Z,20.40
2022-08-31T18:27:24.992Z,20.30
2022-08-31T18:29:52.640Z,20.10
2022-08-31T18:32:19.404Z,19.90
2022-08-31T18:34:47.428Z,20.00
2022-08-31T18:37:16.229Z,20.10
2022-08-31T18:40:04.246Z,20.10
2022-08-31T18:42:51.849Z,20.10
2022-08-31T18:45:19.314Z,20.00
2022-08-31T18:50:45.241Z,20.10
2022-08-31T18:53:15.002Z,20.00
2022-08-31T18:55:43.322Z,20.10
2022-08-31T18:58:10.403Z,20.10
2022-08-31T19:00:37.707Z,19.90
2022-08-31T19:03:04.754Z,19.80
2022-08-31T19:05:32.567Z,19.80
2022-08-31T19:08:00.450Z,19.80
2022-08-31T19:10:27.764Z,19.70
2022-08-31T19:12:55.530Z,19.70
2022-08-31T19:15:25.548Z,19.60
2022-08-31T19:18:00.317Z,19.70
2022-08-31T19:20:28.934Z,19.50
2022-08-31T19:22:56.041Z,19.70
2022-08-31T19:25:24.357Z,19.60
2022-08-31T19:27:51.990Z,19.20
2022-08-31T19:30:24.390Z,19.20
2022-08-31T19:32:54.148Z,19.30
2022-08-31T19:35:21.004Z,19.40
2022-08-31T19:37:51.858Z,19.20
2022-08-31T19:40:19.264Z,19.20
2022-08-31T19:45:43.591Z,19.30
2022-08-31T19:48:12.324Z,18.80
2022-08-31T19:50:42.089Z,18.90
2022-08-31T19:53:13.513Z,19.00
2022-08-31T19:55:52.554Z,19.00
2022-08-31T19:58:25.373Z,19.00
2022-08-31T20:01:00.802Z,19.10
2022-08-31T20:03:28.158Z,18.90
2022-08-31T20:05:55.029Z,18.80
2022-08-31T20:08:21.757Z,18.90
2022-08-31T20:10:48.447Z,19.00
2022-08-31T20:13:15.219Z,18.80
2022-08-31T20:15:44.643Z,18.90
2022-08-31T20:18:12.570Z,18.80
2022-08-31T20:20:45.098Z,18.80
2022-08-31T20:23:17.242Z,18.40
2022-08-31T20:25:51.512Z,17.70
2022-08-31T20:28:25.363Z,17.70
2022-08-31T20:30:55.175Z,17.70
2022-08-31T20:33:22.791Z,17.60
2022-08-31T20:35:49.478Z,17.70
2022-08-31T20:38:17.367Z,18.00
2022-08-31T20:40:47.191Z,18.00
2022-08-31T20:43:14.538Z,18.10
2022-08-31T20:45:41.849Z,18.20
2022-08-31T20:48:27.809Z,18.40
2022-08-31T20:50:55.714Z,18.40
2022-08-31T20:53:38.909Z,18.40
2022-08-31T20:56:09.948Z,18.40
2022-08-31T20:58:37.174Z,18.40
2022-08-31T21:01:07.704Z,18.50
2022-08-31T21:03:34.822Z,18.40
2022-08-31T21:06:08.270Z,18.40
2022-08-31T21:08:38.226Z,18.50
2022-08-31T21:13:35.833Z,18.40
2022-08-31T21:16:03.735Z,18.40
2022-08-31T21:18:33.045Z,18.30
2022-08-31T21:21:08.254Z,18.30
2022-08-31T21:23:36.985Z,18.30
2022-08-31T21:26:05.073Z,18.30
2022-08-31T21:28:31.841Z,18.20
2022-08-31T21:31:08.996Z,18.10
2022-08-31T21:33:43.646Z,18.10
2022-08-31T21:36:14.982Z,18.00
2022-08-31T21:38:43.034Z,17.70
2022-08-31T21:41:11.466Z,17.40
2022-08-31T21:43:39.354Z,17.50
2022-08-31T21:46:09.522Z,17.40
2022-08-31T21:48:38.979Z,17.20
2022-08-31T21:51:24.576Z,17.00
2022-08-31T21:53:55.665Z,17.10
2022-08-31T21:56:24.808Z,17.40
2022-08-31T21:58:51.727Z,17.60
2022-08-31T22:01:20.120Z,17.70
2022-08-31T22:03:48.853Z,17.60
2022-08-31T22:06:26.785Z,17.70
2022-08-31T22:09:00.033Z,17.70
2022-08-31T22:11:30.256Z,17.80
2022-08-31T22:13:58.566Z,17.80
2022-08-31T22:16:27.025Z,17.80
2022-08-31T22:19:01.280Z,17.80
2022-08-31T22:21:32.236Z,17.80
2022-08-31T22:24:01.647Z,17.70
2022-08-31T22:26:30.628Z,17.70
2022-08-31T22:28:59.086Z,17.80
2022-08-31T22:31:27.236Z,17.60
2022-08-31T22:33:54.319Z,17.50
2022-08-31T22:36:30.996Z,17.50
2022-08-31T22:39:04.329Z,17.60
2022-08-31T22:41:32.958Z,17.70
2022-08-31T22:44:00.522Z,17.60
2022-08-31T22:46:27.802Z,17.30
2022-08-31T22:48:54.543Z,17.10
2022-08-31T22:51:22.324Z,17.10
2022-08-31T22:53:51.549Z,17.20
2022-08-31T22:56:26.026Z,17.30
2022-08-31T22:58:55.169Z,17.40
2022-08-31T23:01:23.977Z,17.40
2022-08-31T23:03:51.779Z,17.40
2022-08-31T23:06:23.371Z,17.40
2022-08-31T23:08:51.731Z,17.50
2022-08-31T23:11:20.091Z,17.50
2022-08-31T23:13:57.427Z,17.40
2022-08-31T23:16:29.671Z,17.40
2022-08-31T23:19:01.899Z,17.20
2022-08-31T23:21:36.274Z,17.10
2022-08-31T23:24:04.593Z,17.00
2022-08-31T23:26:31.484Z,17.00
2022-08-31T23:28:59.818Z,17.00
2022-08-31T23:31:27.906Z,17.00
2022-08-31T23:33:54.896Z,17.10
2022-08-31T23:36:26.117Z,17.10
2022-08-31T23:38:58.479Z,17.10
2022-08-31T23:41:30.091Z,17.10
2022-08-31T23:43:58.733Z,17.00
2022-08-31T23:46:25.755Z,16.80
2022-08-31T23:48:53.484Z,16.60
2022-08-31T23:51:21.803Z,16.70
2022-08-31T23:53:55.039Z,16.80
2022-08-31T23:56:32.086Z,16.90
2022-08-31T23:59:08.908Z,16.80
